sensor_id;sensor_type;location;lat;lon;timestamp;pressure;altitude;pressure_sealevel;temperature;humidity
46382;BME280;66809;52.974;-2.514;2023-03-20T00:01:50;1008.4225599185135;;;6.926043763882344;40.937654124055406
46382;BME280;66809;52.974;-2.514;2023-03-20T00:03:51;1008.4101706246787;;;6.916523481856239;40.947381546230346
46382;BME280;66809;52.974;-2.514;2023-03-20T00:05:51;1008.3969096392842;;;6.918687352221931;40.961191543241235
46382;BME280;66809;52.974;-2.514;2023-03-20T00:07:51;1008.3835903176441;;;6.902828617672349;40.976948977993935
46382;BME280;66809;52.974;-2.514;2023-03-20T00:09:51;1008.3707744405372;;;6.888033924380454;40.98560519894626
46382;BME280;66809;52.974;-2.514;2023-03-20T00:11:52;1008.3574491019624;;;6.896802667663208;40.998736012389855
46382;BME280;66809;52.974;-2.514;2023-03-20T00:13:50;1008.3449292929785;;;6.893641717184324;41.016340008599904
46382;BME280;66809;52.974;-2.514;2023-03-20T00:15:50;1008.3310741684146;;;6.88293977532013;41.03569371457168
46382;BME280;66809;52.974;-2.514;2023-03-20T00:17:52;1008.3171651342277;;;6.865649768345956;41.05222178339769
46382;BME280;66809;52.974;-2.514;2023-03-20T00:19:50;1008.3030274831051;;;6.849712443906147;41.065442361148435
46382;BME280;66809;52.974;-2.514;2023-03-20T00:21:51;1008.2887402950054;;;6.8449066476193146;41.079731540910394
46382;BME280;66809;52.974;-2.514;2023-03-20T00:23:50;1008.2740326680129;;;6.824842969193977;41.09285379177404
46382;BME280;66809;52.974;-2.514;2023-03-20T00:25:51;1008.2604315216993;;;6.816322502855125;41.1053935858555
46382;BME280;66809;52.974;-2.514;2023-03-20T00:27:51;1008.2466095400578;;;6.81149150445059;41.11792866496048
46382;BME280;66809;52.974;-2.514;2023-03-20T00:29:50;1008.2300035090698;;;6.800408509903193;41.129975381383865
46382;BME280;66809;52.974;-2.514;2023-03-20T00:31:50;1008.2127846178214;;;6.800381426399937;41.14561977868255
46382;BME280;66809;52.974;-2.514;2023-03-20T00:33:50;1008.1927510147867;;;6.789955646361547;41.159814004150526
46382;BME280;66809;52.974;-2.514;2023-03-20T00:35:51;1008.1715873294157;;;6.778115390022572;41.16836869326675
46382;BME280;66809;52.974;-2.514;2023-03-20T00:37:52;1008.1501038811554;;;6.765639587010919;41.18294792661446
46382;BME280;66809;52.974;-2.514;2023-03-20T00:39:51;1008.1270410459515;;;6.752407627047888;41.19937417635533
46382;BME280;66809;52.974;-2.514;2023-03-20T00:41:52;1008.1045837618427;;;6.745074790347692;41.21628773952729
46382;BME280;66809;52.974;-2.514;2023-03-20T00:43:53;1008.0811079306536;;;6.731506759448426;41.23553528205212
46382;BME280;66809;52.974;-2.514;2023-03-20T00:45:50;1008.0557066467659;;;6.7247517600140325;41.25623625225399
46382;BME280;66809;52.974;-2.514;2023-03-20T00:47:50;1008.0309126289558;;;6.7161830859521565;41.286745755348974
46382;BME280;66809;52.974;-2.514;2023-03-20T00:49:52;1008.0075747792529;;;6.705234831036057;41.32823117634493
46382;BME280;66809;52.974;-2.514;2023-03-20T00:51:51;1007.9837973388754;;;6.6740044416981785;41.376229274385146
46382;BME280;66809;52.974;-2.514;2023-03-20T00:53:50;1007.9618079933432;;;6.663171914015;41.42228961413207
46382;BME280;66809;52.974;-2.514;2023-03-20T00:55:51;1007.9406584417467;;;6.633969330807119;41.47175958796136
46382;BME280;66809;52.974;-2.514;2023-03-20T00:57:52;1007.9207845553369;;;6.6316656856701295;41.5212200781607
46382;BME280;66809;52.974;-2.514;2023-03-20T00:59:54;1007.8991216446968;;;6.611664122110573;41.573018085968876
46382;BME280;66809;52.974;-2.514;2023-03-20T01:01:51;1007.8778510147096;;;6.595995974431902;41.622186445464166
46382;BME280;66809;52.974;-2.514;2023-03-20T01:03:51;1007.8563130398459;;;6.596466792642233;41.66464968466163
46382;BME280;66809;52.974;-2.514;2023-03-20T01:05:51;1007.8350010191186;;;6.596090919395635;41.702741530977974
46382;BME280;66809;52.974;-2.514;2023-03-20T01:07:50;1007.8138961913852;;;6.590426261738794;41.740255613133385
46382;BME280;66809;52.974;-2.514;2023-03-20T01:09:51;1007.7912529013471;;;6.588150487425735;41.77904443666083
46382;BME280;66809;52.974;-2.514;2023-03-20T01:11:51;1007.7677643050367;;;6.568686313800461;41.81385393339765
46382;BME280;66809;52.974;-2.514;2023-03-20T01:13:50;1007.742809510711;;;6.567367239502963;41.839818753888586
46382;BME280;66809;52.974;-2.514;2023-03-20T01:15:53;1007.7197426144972;;;6.575288201270632;41.86258205640472
46382;BME280;66809;52.974;-2.514;2023-03-20T01:17:50;1007.6974378864791;;;6.591466194000831;41.88019669629007
46382;BME280;66809;52.974;-2.514;2023-03-20T01:19:50;1007.6768101501794;;;6.59753767261402;41.894797061537375
46382;BME280;66809;52.974;-2.514;2023-03-20T01:21:51;1007.6557544044912;;;6.594942318437422;41.909496516311826
46382;BME280;66809;52.974;-2.514;2023-03-20T01:23:50;1007.6339228081118;;;6.60246187882136;41.919138241067984
46382;BME280;66809;52.974;-2.514;2023-03-20T01:25:50;1007.6110509415994;;;6.602796846752706;41.933735939063695
46382;BME280;66809;52.974;-2.514;2023-03-20T01:27:52;1007.5896344429493;;;6.595234957275722;41.94843660023067
46382;BME280;66809;52.974;-2.514;2023-03-20T01:29:50;1007.5704761575229;;;6.587911298823058;41.95506479092544
46382;BME280;66809;52.974;-2.514;2023-03-20T01:31:51;1007.5510973485475;;;6.585433561630407;41.96081866665898
46382;BME280;66809;52.974;-2.514;2023-03-20T01:33:50;1007.5330466953997;;;6.586818745947186;41.96676571969399
46382;BME280;66809;52.974;-2.514;2023-03-20T01:35:51;1007.514917747835;;;6.589509184541365;41.9721294731592
46382;BME280;66809;52.974;-2.514;2023-03-20T01:37:50;1007.4973667281618;;;6.589081475437849;41.97818055268166
46382;BME280;66809;52.974;-2.514;2023-03-20T01:39:50;1007.4803900573269;;;6.593880753384531;41.98413399563661
46382;BME280;66809;52.974;-2.514;2023-03-20T01:41:52;1007.4624341722032;;;6.600615967193184;41.99037502562984
46382;BME280;66809;52.974;-2.514;2023-03-20T01:43:51;1007.445677132461;;;6.601858325293878;41.9976841327098
46382;BME280;66809;52.974;-2.514;2023-03-20T01:45:57;1007.4306733782372;;;6.600254374863884;42.00771983287806
46382;BME280;66809;52.974;-2.514;2023-03-20T01:47:51;1007.4137540687651;;;6.611694559349315;42.011930882794516
46382;BME280;66809;52.974;-2.514;2023-03-20T01:50:28;1007.3957195285607;;;6.632523571128609;42.0078872680015
46382;BME280;66809;52.974;-2.514;2023-03-20T01:51:51;1007.3778219538251;;;6.644497929614551;42.003849888323344
46382;BME280;66809;52.974;-2.514;2023-03-20T01:53:53;1007.3581206931989;;;6.6479873154474785;42.00380097155982
46382;BME280;66809;52.974;-2.514;2023-03-20T01:55:54;1007.3390077364026;;;6.677417833412316;42.0027784206974
46382;BME280;66809;52.974;-2.514;2023-03-20T01:57:52;1007.3215588197849;;;6.6767136478849185;41.99690086826025
46382;BME280;66809;52.974;-2.514;2023-03-20T01:59:54;1007.3042824017022;;;6.6848557131204105;41.990921921753745
46382;BME280;66809;52.974;-2.514;2023-03-20T02:01:51;1007.2869809878827;;;6.701003852316328;41.98649381636048
46382;BME280;66809;52.974;-2.514;2023-03-20T02:03:51;1007.2701640202869;;;6.708807964986408;41.98575409181821
46382;BME280;66809;52.974;-2.514;2023-03-20T02:05:51;1007.252590773819;;;6.709620729276407;41.98715006392736
46382;BME280;66809;52.974;-2.514;2023-03-20T02:08:04;1007.2349680912504;;;6.727635168393132;41.990977018061685
46382;BME280;66809;52.974;-2.514;2023-03-20T02:09:51;1007.2174296021919;;;6.732851557101337;41.998786179001854
46382;BME280;66809;52.974;-2.514;2023-03-20T02:11:51;1007.1987393681273;;;6.7524574684175995;42.00785693875055
46382;BME280;66809;52.974;-2.514;2023-03-20T02:13:53;1007.1796487981662;;;6.756887082636696;42.020426255456
46382;BME280;66809;52.974;-2.514;2023-03-20T02:15:55;1007.1608022865947;;;6.753989276839936;42.03814748751358
46382;BME280;66809;52.974;-2.514;2023-03-20T02:17:51;1007.1427849248013;;;6.751203677481517;42.05508875561274
46382;BME280;66809;52.974;-2.514;2023-03-20T02:20:00;1007.1231122351775;;;6.7467293237719295;42.07572096050051
46382;BME280;66809;52.974;-2.514;2023-03-20T02:22:12;1007.1039857457748;;;6.750619336284227;42.09673835997614
46382;BME280;66809;52.974;-2.514;2023-03-20T02:24:37;1007.0849982078942;;;6.751284965160943;42.122136243423775
46382;BME280;66809;52.974;-2.514;2023-03-20T02:26:11;1007.066193517826;;;6.751950591781482;42.14442032319628
46382;BME280;66809;52.974;-2.514;2023-03-20T02:28:07;1007.0453702975539;;;6.760829354540008;42.16514448735089
46382;BME280;66809;52.974;-2.514;2023-03-20T02:31:06;1007.0235379583664;;;6.766030037349283;42.19452522916841
46382;BME280;66809;52.974;-2.514;2023-03-20T02:37:37;1006.5569590254183;;;6.766850837589558;43.055026991396936
46382;BME280;66809;52.974;-2.514;2023-03-20T02:39:34;1006.551327181307;;;6.745288870632899;43.06998037538077
46382;BME280;66809;52.974;-2.514;2023-03-20T02:41:22;1006.5473905969079;;;6.7170983619643705;43.08843393304478
46382;BME280;66809;52.974;-2.514;2023-03-20T02:43:20;1006.5433024245118;;;6.718686923365929;43.095655091775924
46382;BME280;66809;52.974;-2.514;2023-03-20T02:45:23;1006.5383762129538;;;6.70663302032597;43.09493301088239
46382;BME280;66809;52.974;-2.514;2023-03-20T02:47:20;1006.531743348915;;;6.722778577292661;43.09749106770431
46382;BME280;66809;52.974;-2.514;2023-03-20T02:49:28;1006.5229330152083;;;6.725172866976605;43.09674657020582
46382;BME280;66809;52.974;-2.514;2023-03-20T02:51:20;1006.5137418823144;;;6.7288814614616586;43.0979903107871
46382;BME280;66809;52.974;-2.514;2023-03-20T02:53:27;1006.5048043602361;;;6.75331681384281;43.101597282313044
46382;BME280;66809;52.974;-2.514;2023-03-20T02:55:21;1006.4967001171789;;;6.748757119100771;43.10786361887308
46382;BME280;66809;52.974;-2.514;2023-03-20T02:57:21;1006.4899068271438;;;6.746587188459037;43.11185616225556
46382;BME280;66809;52.974;-2.514;2023-03-20T02:59:22;1006.482911647908;;;6.754555280376862;43.114764753359886
46382;BME280;66809;52.974;-2.514;2023-03-20T03:01:20;1006.4783803828974;;;6.774288987376324;43.11814964008437
46382;BME280;66809;52.974;-2.514;2023-03-20T03:03:19;1006.4747949197181;;;6.77745667390373;43.12193011655058
46382;BME280;66809;52.974;-2.514;2023-03-20T03:05:21;1006.4720600082122;;;6.781354893404088;43.12688315508014
46382;BME280;66809;52.974;-2.514;2023-03-20T03:07:18;1006.4690463723645;;;6.793706541896808;43.127681710562946
46382;BME280;66809;52.974;-2.514;2023-03-20T03:09:20;1006.4654128891965;;;6.8003619850049155;43.1260063655655
46382;BME280;66809;52.974;-2.514;2023-03-20T03:11:17;1006.4617253621137;;;6.81899770291745;43.126783629958005
46382;BME280;66809;52.974;-2.514;2023-03-20T03:13:19;1006.4579816214901;;;6.823857010947922;43.12842910157765
46382;BME280;66809;52.974;-2.514;2023-03-20T03:15:22;1006.452266115867;;;6.826122519078486;43.13038782640286
46382;BME280;66809;52.974;-2.514;2023-03-20T03:17:19;1006.4451240803872;;;6.83591972542931;43.13437290036154
46382;BME280;66809;52.974;-2.514;2023-03-20T03:19:19;1006.438123124465;;;6.845746285418779;43.13474125361245
46382;BME280;66809;52.974;-2.514;2023-03-20T03:21:17;1006.4294616919234;;;6.84933456428149;43.136188535814675
46382;BME280;66809;52.974;-2.514;2023-03-20T03:23:24;1006.4201176656549;;;6.8729890688623465;43.14016297178353
46382;BME280;66809;52.974;-2.514;2023-03-20T03:25:16;1006.4062519998608;;;6.780457758426312;43.14965640887282
46382;BME280;66809;52.974;-2.514;2023-03-20T03:27:20;1006.3917633612233;;;6.8060012837610975;43.160897088947564
46382;BME280;66809;52.974;-2.514;2023-03-20T03:29:17;1006.3765360096968;;;6.830402167433304;43.16911943185877
46382;BME280;66809;52.974;-2.514;2023-03-20T03:31:17;1006.3621453148425;;;6.859329705216249;43.18045152793065
46382;BME280;66809;52.974;-2.514;2023-03-20T03:33:20;1006.3474089659655;;;6.887234124835188;43.19150761753743
46382;BME280;66809;52.974;-2.514;2023-03-20T03:35:19;1006.3323174638512;;;6.906717806607279;43.1987847719362
46382;BME280;66809;52.974;-2.514;2023-03-20T03:37:23;1006.3192485868173;;;6.909711537514979;43.20119140598938
46382;BME280;66809;52.974;-2.514;2023-03-20T03:39:24;1006.3057895052908;;;6.922794974403507;43.20000044088655
46382;BME280;66809;52.974;-2.514;2023-03-20T03:41:21;1006.2902150034155;;;6.941707347130822;43.19803709143519
46382;BME280;66809;52.974;-2.514;2023-03-20T03:43:21;1006.272402028752;;;6.952597935750677;43.19839301210069
46382;BME280;66809;52.974;-2.514;2023-03-20T03:45:22;1006.2543126073828;;;6.967628696975779;43.19971768608371
46382;BME280;66809;52.974;-2.514;2023-03-20T03:47:19;1006.2355053207464;;;6.971737973376943;43.19938741298535
46382;BME280;66809;52.974;-2.514;2023-03-20T03:49:20;1006.2179606290094;;;6.9942790996710205;43.20342392625235
46382;BME280;66809;52.974;-2.514;2023-03-20T03:51:22;1006.203038784435;;;6.999347260258724;43.20657628171089
46382;BME280;66809;52.974;-2.514;2023-03-20T03:53:19;1006.1892755177643;;;6.982460248624421;43.21206332369875
46382;BME280;66809;52.974;-2.514;2023-03-20T03:55:20;1006.1766833864076;;;6.9908872206428905;43.21569716719588
46382;BME280;66809;52.974;-2.514;2023-03-20T03:57:21;1006.1628526746987;;;6.997759866228645;43.21981057341231
46382;BME280;66809;52.974;-2.514;2023-03-20T03:59:21;1006.1505327434814;;;6.998391896492262;43.22722481831854
46382;BME280;66809;52.974;-2.514;2023-03-20T04:01:18;1006.137456540719;;;7.006623732368102;43.23307505420529
46382;BME280;66809;52.974;-2.514;2023-03-20T04:03:19;1006.1232870864983;;;7.008564541319797;43.24251748228178
46382;BME280;66809;52.974;-2.514;2023-03-20T04:05:18;1006.1071975510771;;;7.012536679751132;43.25107243612584
46382;BME280;66809;52.974;-2.514;2023-03-20T04:07:16;1006.0926521216549;;;7.014047099516333;43.263993495327604
46382;BME280;66809;52.974;-2.514;2023-03-20T04:09:16;1006.0800292648847;;;7.026016905443535;43.281292000631666
46382;BME280;66809;52.974;-2.514;2023-03-20T04:11:19;1006.0673186283515;;;7.014585893181352;43.29694342979037
46382;BME280;66809;52.974;-2.514;2023-03-20T04:13:17;1006.0534767911581;;;7.024742816191256;43.31425491441537
46382;BME280;66809;52.974;-2.514;2023-03-20T04:15:17;1006.0402750455618;;;7.027322160729359;43.327980449715874
46382;BME280;66809;52.974;-2.514;2023-03-20T04:17:17;1006.0283791133172;;;7.02974187252376;43.336551077311356
46382;BME280;66809;52.974;-2.514;2023-03-20T04:19:16;1006.0178939689869;;;7.02597137744556;43.346476996982396
46382;BME280;66809;52.974;-2.514;2023-03-20T04:21:17;1006.012013176926;;;7.038413583763235;43.35767211599003
46382;BME280;66809;52.974;-2.514;2023-03-20T04:23:17;1006.0057361222938;;;7.026642442798651;43.36732173442804
46382;BME280;66809;52.974;-2.514;2023-03-20T04:25:18;1006.0000684946623;;;7.032977382892393;43.375520573369414
46382;BME280;66809;52.974;-2.514;2023-03-20T04:27:16;1005.9950859036313;;;7.040370946982441;43.38197363946271
46382;BME280;66809;52.974;-2.514;2023-03-20T04:29:17;1005.9927398436762;;;7.050612713404717;43.388050474118685
46382;BME280;66809;52.974;-2.514;2023-03-20T04:31:17;1005.9905692296635;;;7.064139577534932;43.39122385538088
46382;BME280;66809;52.974;-2.514;2023-03-20T04:33:17;1005.9889170706924;;;7.076507003419665;43.39604581542475
46382;BME280;66809;52.974;-2.514;2023-03-20T04:35:16;1005.9879973134072;;;7.080437967970069;43.402315097803616
46382;BME280;66809;52.974;-2.514;2023-03-20T04:37:17;1005.9868280731818;;;7.08450336355356;43.416659811014135
46382;BME280;66809;52.974;-2.514;2023-03-20T04:39:17;1005.9864448866613;;;7.099985948284783;43.43149536621294
46382;BME280;66809;52.974;-2.514;2023-03-20T04:41:17;1005.9876848437126;;;7.11361174094375;43.44661574573489
46382;BME280;66809;52.974;-2.514;2023-03-20T04:43:16;1005.9921497446101;;;7.122492432491226;43.463390619102775
46382;BME280;66809;52.974;-2.514;2023-03-20T04:45:16;1005.9964942756062;;;7.132910651523121;43.48348057832115
46382;BME280;66809;52.974;-2.514;2023-03-20T04:47:17;1006.0012994348867;;;7.14309361929909;43.503374344749915
46382;BME280;66809;52.974;-2.514;2023-03-20T04:49:17;1006.0065293822856;;;7.134710312729687;43.52298740136013
46382;BME280;66809;52.974;-2.514;2023-03-20T04:51:16;1006.0087675510325;;;7.148522849230364;43.543286511080325
46382;BME280;66809;52.974;-2.514;2023-03-20T04:53:17;1006.0099499927367;;;7.166881821785916;43.560272955023216
46382;BME280;66809;52.974;-2.514;2023-03-20T04:55:17;1006.009666414037;;;7.1801902508196545;43.57765195623637
46382;BME280;66809;52.974;-2.514;2023-03-20T04:57:16;1006.0095241347024;;;7.194784153518053;43.59552333323223
46382;BME280;66809;52.974;-2.514;2023-03-20T04:59:17;1006.0084323472548;;;7.203747787556115;43.61076891975936
46382;BME280;66809;52.974;-2.514;2023-03-20T05:01:17;1006.0079803269167;;;7.198103462425037;43.62893690759942
46382;BME280;66809;52.974;-2.514;2023-03-20T05:03:17;1006.0061046560265;;;7.209974118097324;43.641960232841164
46382;BME280;66809;52.974;-2.514;2023-03-20T05:05:16;1006.0039482525084;;;7.229323430296386;43.65547822269306
46382;BME280;66809;52.974;-2.514;2023-03-20T05:07:17;1006.0008837902387;;;7.234047975696624;43.66588611395482
46382;BME280;66809;52.974;-2.514;2023-03-20T05:09:17;1005.9955183043484;;;7.238091979972885;43.67639065163027
46382;BME280;66809;52.974;-2.514;2023-03-20T05:11:16;1005.9901678993626;;;7.256080209098626;43.68503975435674
46382;BME280;66809;52.974;-2.514;2023-03-20T05:13:17;1005.9860215219827;;;7.260962486491063;43.69426140807989
46382;BME280;66809;52.974;-2.514;2023-03-20T05:15:17;1005.9818711460942;;;7.280830808127884;43.709708372334596
46382;BME280;66809;52.974;-2.514;2023-03-20T05:17:16;1005.9791410424838;;;7.295954035096282;43.72719869238347
46382;BME280;66809;52.974;-2.514;2023-03-20T05:19:17;1005.9765806808625;;;7.31376583796342;43.74557777033574
46382;BME280;66809;52.974;-2.514;2023-03-20T05:21:17;1005.9721509409206;;;7.321908025529533;43.75987408275918
46382;BME280;66809;52.974;-2.514;2023-03-20T05:23:17;1005.969243296775;;;7.33390770519869;43.77708248528856
46382;BME280;66809;52.974;-2.514;2023-03-20T05:25:17;1005.9682112744599;;;7.3465963357498065;43.79361371895727
46382;BME280;66809;52.974;-2.514;2023-03-20T05:27:17;1005.9679540192777;;;7.360172585090232;43.80606665756796
46382;BME280;66809;52.974;-2.514;2023-03-20T05:29:17;1005.9641210217126;;;7.358544351992618;43.816669983521585
46382;BME280;66809;52.974;-2.514;2023-03-20T05:31:16;1005.9579190260931;;;7.377003122534272;43.82502942434494
46382;BME280;66809;52.974;-2.514;2023-03-20T05:33:17;1005.9505473108871;;;7.38658012811899;43.835808552497255
46382;BME280;66809;52.974;-2.514;2023-03-20T05:35:17;1005.9429910850394;;;7.401258085819407;43.84814259414111
46382;BME280;66809;52.974;-2.514;2023-03-20T05:37:17;1005.9336354384593;;;7.413902806685898;43.8604675052798
46382;BME280;66809;52.974;-2.514;2023-03-20T05:39:17;1005.9261955481026;;;7.415718460220922;43.87230420969953
46382;BME280;66809;52.974;-2.514;2023-03-20T05:41:17;1005.9180568177787;;;7.422752693598786;43.88511276984983
46382;BME280;66809;52.974;-2.514;2023-03-20T05:43:16;1005.9072215374227;;;7.434431206380771;43.89665589944663
46382;BME280;66809;52.974;-2.514;2023-03-20T05:45:17;1005.8975419780511;;;7.441134795564092;43.90596479182175
46382;BME280;66809;52.974;-2.514;2023-03-20T05:47:16;1005.8887998367609;;;7.450375733107162;43.913728405841645
46382;BME280;66809;52.974;-2.514;2023-03-20T05:49:17;1005.8805994197276;;;7.465868675469835;43.920522869120994
46382;BME280;66809;52.974;-2.514;2023-03-20T05:51:17;1005.8714833330874;;;7.483235224647365;43.92586665733573
46382;BME280;66809;52.974;-2.514;2023-03-20T05:53:17;1005.86142339473;;;7.502550994185487;43.92937014839062
46382;BME280;66809;52.974;-2.514;2023-03-20T05:55:17;1005.8526665159758;;;7.5215222915173525;43.93696226228706
46382;BME280;66809;52.974;-2.514;2023-03-20T05:57:17;1005.8466283432597;;;7.540065098543994;43.94309160729615
46382;BME280;66809;52.974;-2.514;2023-03-20T05:59:17;1005.8414712036808;;;7.565557259843852;43.95146720971679
46382;BME280;66809;52.974;-2.514;2023-03-20T06:01:17;1005.83631512969;;;7.585603998212163;43.95741124813518
46382;BME280;66809;52.974;-2.514;2023-03-20T06:03:17;1005.8333407662897;;;7.610818909176718;43.964423307329675
46382;BME280;66809;52.974;-2.514;2023-03-20T06:05:17;1005.8320416216383;;;7.6263389995778486;43.96919974958915
46382;BME280;66809;52.974;-2.514;2023-03-20T06:07:17;1005.8296679394613;;;7.640873101007831;43.97640964347174
46382;BME280;66809;52.974;-2.514;2023-03-20T06:09:17;1005.8292622492281;;;7.659861214671008;43.98371209287071
46382;BME280;66809;52.974;-2.514;2023-03-20T06:11:17;1005.8320368597449;;;7.67933560606369;43.98792836945616
46382;BME280;66809;52.974;-2.514;2023-03-20T06:13:18;1005.8354991783435;;;7.698852920043075;43.97709482404649
46382;BME280;66809;52.974;-2.514;2023-03-20T06:15:17;1005.8410671079938;;;7.717658035594652;43.95858244624232
46382;BME280;66809;52.974;-2.514;2023-03-20T06:17:17;1005.8447983785304;;;7.728323710114619;43.94287896852678
46382;BME280;66809;52.974;-2.514;2023-03-20T06:19:17;1005.8468616576259;;;7.750099206478166;43.930863070265175
46382;BME280;66809;52.974;-2.514;2023-03-20T06:21:17;1005.8489007264914;;;7.776322271586266;43.91788396934233
46382;BME280;66809;52.974;-2.514;2023-03-20T06:23:17;1005.8515291899222;;;7.798496585691636;43.89323669999724
46382;BME280;66809;52.974;-2.514;2023-03-20T06:25:17;1005.8533320962085;;;7.823510751230953;43.86625402522945
46382;BME280;66809;52.974;-2.514;2023-03-20T06:27:17;1005.8541320410555;;;7.846463011442092;43.836243270499715
46382;BME280;66809;52.974;-2.514;2023-03-20T06:29:17;1005.8559698170936;;;7.887817935556303;43.80370069161144
46382;BME280;66809;52.974;-2.514;2023-03-20T06:31:17;1005.8588977432794;;;7.921259272799559;43.77076342689407
46382;BME280;66809;52.974;-2.514;2023-03-20T06:33:16;1005.8628290353028;;;7.958282781344157;43.734523186920605
46382;BME280;66809;52.974;-2.514;2023-03-20T06:35:17;1005.8678885807993;;;7.988249672844622;43.6920505652675
46382;BME280;66809;52.974;-2.514;2023-03-20T06:37:18;1005.8755492371488;;;8.036428932182202;43.64793082854332
46382;BME280;66809;52.974;-2.514;2023-03-20T06:39:16;1005.8812029076;;;8.071638610985975;43.600793617695906
46382;BME280;66809;52.974;-2.514;2023-03-20T06:41:17;1005.8873388925946;;;8.096948871402754;43.55103170574504
46382;BME280;66809;52.974;-2.514;2023-03-20T06:43:17;1005.8957713123292;;;8.128074239702253;43.501856870840584
46382;BME280;66809;52.974;-2.514;2023-03-20T06:45:16;1005.9050119752454;;;8.179874746521183;43.45375068903061
46382;BME280;66809;52.974;-2.514;2023-03-20T06:47:17;1005.9143269488912;;;8.21046243842668;43.406999821509665
46382;BME280;66809;52.974;-2.514;2023-03-20T06:49:17;1005.9233367569337;;;8.261742068362057;43.35849291609049
46382;BME280;66809;52.974;-2.514;2023-03-20T06:51:17;1005.9342520467926;;;8.302385894097087;43.30988127181722
46382;BME280;66809;52.974;-2.514;2023-03-20T06:53:16;1005.9466849064115;;;8.333250903255182;43.261361925346975
46382;BME280;66809;52.974;-2.514;2023-03-20T06:55:17;1005.9589954908406;;;8.359829963667753;43.20924436516312
46382;BME280;66809;52.974;-2.514;2023-03-20T06:57:17;1005.969199687148;;;8.403767377008068;43.15712414440904
46382;BME280;66809;52.974;-2.514;2023-03-20T06:59:17;1005.9778766988795;;;8.436858928718866;43.10354346046598
46382;BME280;66809;52.974;-2.514;2023-03-20T07:01:17;1005.9840878258688;;;8.471084763189102;43.04986229467224
46382;BME280;66809;52.974;-2.514;2023-03-20T07:03:17;1005.9893424802756;;;8.49999121827099;42.99549537288168
46382;BME280;66809;52.974;-2.514;2023-03-20T07:05:16;1005.9949889031224;;;8.535502575396208;42.94258985510541
46382;BME280;66809;52.974;-2.514;2023-03-20T07:07:17;1006.0006591502867;;;8.58912005439314;42.88685818793694
46382;BME280;66809;52.974;-2.514;2023-03-20T07:09:17;1006.0050929287402;;;8.619841327962446;42.830842880395
46382;BME280;66809;52.974;-2.514;2023-03-20T07:11:17;1006.0071769536193;;;8.660496670359075;42.78787262396404
46382;BME280;66809;52.974;-2.514;2023-03-20T07:13:16;1006.0088616427489;;;8.690596299112004;42.75322814889091
46382;BME280;66809;52.974;-2.514;2023-03-20T07:15:17;1006.0098896759994;;;8.7162765490384;42.72539320749802
46382;BME280;66809;52.974;-2.514;2023-03-20T07:17:17;1006.0113874952654;;;8.760230947492442;42.699720465283164
46382;BME280;66809;52.974;-2.514;2023-03-20T07:19:17;1006.013301566514;;;8.796131866308878;42.670542620945